DCM715 KJQF-KDAB
Flight info
| Callsign | DCM715 |
|---|---|
| Flight time | 1h 24m |
| Altitude | 30000 |
| Route | SLOJO Q103 EMCET Q69 VIYAP/N0310F290 LPERD TTHOR3 |
| Aircraft | TBM8/L-SDFGRWY/S |
Departure
| Time | 2026-04-18 02:28 |
|---|---|
| Airport | Concord-Padgett Regional Airport (KJQF) |
Arrival
| Time | 2026-04-18 03:52 |
|---|---|
| Airport | Daytona Beach International Airport (KDAB) |
| Time | Latitude | Longitude | Altitude | Speed | Heading |
|---|---|---|---|---|---|
| 2026-04-18 02:13 | 35.38682 | -80.71148 | 676 ft | 0 kts | 274° |
| 2026-04-18 02:23 | 35.38688 | -80.71155 | 676 ft | 3 kts | 353° |
| 2026-04-18 02:24 | 35.38696 | -80.71151 | 676 ft | 0 kts | 38° |
| 2026-04-18 02:24 | 35.38708 | -80.71133 | 677 ft | 11 kts | 58° |
| 2026-04-18 02:24 | 35.38693 | -80.71070 | 677 ft | 9 kts | 181° |
| 2026-04-18 02:24 | 35.38598 | -80.71091 | 674 ft | 18 kts | 192° |
| 2026-04-18 02:25 | 35.38513 | -80.71111 | 671 ft | 10 kts | 191° |
| 2026-04-18 02:25 | 35.38394 | -80.71138 | 667 ft | 24 kts | 187° |
| 2026-04-18 02:25 | 35.38235 | -80.71173 | 662 ft | 19 kts | 191° |
| 2026-04-18 02:25 | 35.38086 | -80.71207 | 658 ft | 22 kts | 189° |
| 2026-04-18 02:26 | 35.37916 | -80.71245 | 652 ft | 24 kts | 190° |
| 2026-04-18 02:26 | 35.37807 | -80.71257 | 648 ft | 8 kts | 137° |
| 2026-04-18 02:26 | 35.37800 | -80.71241 | 648 ft | 0 kts | 103° |
| 2026-04-18 02:26 | 35.37798 | -80.71231 | 648 ft | 7 kts | 100° |
| 2026-04-18 02:27 | 35.37797 | -80.71156 | 648 ft | 11 kts | 68° |
| 2026-04-18 02:27 | 35.37911 | -80.71110 | 652 ft | 28 kts | 10° |
| 2026-04-18 02:27 | 35.38172 | -80.71049 | 661 ft | 54 kts | 11° |
| 2026-04-18 02:27 | 35.38717 | -80.70925 | 692 ft | 101 kts | 7° |
| 2026-04-18 02:28 | 35.39469 | -80.70773 | 965 ft | 116 kts | 8° |
| 2026-04-18 02:28 | 35.40337 | -80.70637 | 1268 ft | 137 kts | 8° |
| 2026-04-18 02:28 | 35.41312 | -80.70385 | 1677 ft | 144 kts | 12° |
| 2026-04-18 02:28 | 35.42302 | -80.70081 | 2101 ft | 150 kts | 30° |
| 2026-04-18 02:29 | 35.42798 | -80.69056 | 2611 ft | 144 kts | 92° |
| 2026-04-18 02:29 | 35.42310 | -80.68066 | 3081 ft | 142 kts | 152° |
| 2026-04-18 02:29 | 35.41344 | -80.67881 | 3565 ft | 143 kts | 180° |
| 2026-04-18 02:29 | 35.40341 | -80.67852 | 4005 ft | 148 kts | 178° |
| 2026-04-18 02:30 | 35.39288 | -80.67824 | 4430 ft | 152 kts | 179° |
| 2026-04-18 02:30 | 35.38223 | -80.67796 | 4896 ft | 154 kts | 179° |
| 2026-04-18 02:30 | 35.37142 | -80.67767 | 5345 ft | 156 kts | 179° |
| 2026-04-18 02:30 | 35.36046 | -80.67737 | 5801 ft | 158 kts | 179° |
| 2026-04-18 02:31 | 35.34937 | -80.67699 | 6310 ft | 160 kts | 179° |
| 2026-04-18 02:31 | 35.33819 | -80.67666 | 6803 ft | 162 kts | 180° |
| 2026-04-18 02:31 | 35.32687 | -80.67637 | 7282 ft | 164 kts | 179° |
| 2026-04-18 02:31 | 35.31544 | -80.67605 | 7759 ft | 167 kts | 179° |
| 2026-04-18 02:32 | 35.30376 | -80.67572 | 8246 ft | 169 kts | 179° |
| 2026-04-18 02:32 | 35.29193 | -80.67538 | 8729 ft | 171 kts | 179° |
| 2026-04-18 02:32 | 35.27995 | -80.67504 | 9214 ft | 173 kts | 179° |
| 2026-04-18 02:32 | 35.26781 | -80.67470 | 9702 ft | 175 kts | 179° |
| 2026-04-18 02:33 | 35.25554 | -80.67435 | 10154 ft | 177 kts | 179° |
| 2026-04-18 02:33 | 35.24320 | -80.67400 | 10620 ft | 177 kts | 179° |
| 2026-04-18 02:33 | 35.23083 | -80.67365 | 11081 ft | 177 kts | 179° |
| 2026-04-18 02:33 | 35.21849 | -80.67329 | 11543 ft | 177 kts | 179° |
| 2026-04-18 02:34 | 35.20614 | -80.67293 | 11967 ft | 181 kts | 179° |
| 2026-04-18 02:34 | 35.19265 | -80.67259 | 12000 ft | 207 kts | 179° |
| 2026-04-18 02:34 | 35.17766 | -80.67224 | 12002 ft | 229 kts | 179° |
| 2026-04-18 02:34 | 35.16114 | -80.67173 | 12000 ft | 245 kts | 179° |
| 2026-04-18 02:35 | 35.14361 | -80.67119 | 11987 ft | 257 kts | 179° |
| 2026-04-18 02:35 | 35.12541 | -80.67068 | 11988 ft | 265 kts | 179° |
| 2026-04-18 02:35 | 35.10674 | -80.67016 | 11989 ft | 271 kts | 179° |
| 2026-04-18 02:35 | 35.08771 | -80.66962 | 11988 ft | 275 kts | 179° |
| 2026-04-18 02:36 | 35.06848 | -80.66907 | 11988 ft | 278 kts | 179° |
| 2026-04-18 02:36 | 35.04908 | -80.66852 | 11989 ft | 279 kts | 179° |
| 2026-04-18 02:36 | 35.02959 | -80.66797 | 11988 ft | 280 kts | 179° |
| 2026-04-18 02:36 | 35.01007 | -80.66741 | 11988 ft | 281 kts | 179° |
| 2026-04-18 02:37 | 34.99047 | -80.66685 | 11988 ft | 282 kts | 179° |
| 2026-04-18 02:37 | 34.97086 | -80.66630 | 11985 ft | 282 kts | 179° |
| 2026-04-18 02:37 | 34.95125 | -80.66573 | 11984 ft | 282 kts | 179° |
| 2026-04-18 02:37 | 34.93159 | -80.66518 | 11985 ft | 282 kts | 179° |
| 2026-04-18 02:38 | 34.91195 | -80.66461 | 11986 ft | 282 kts | 179° |
| 2026-04-18 02:38 | 34.89231 | -80.66406 | 11987 ft | 282 kts | 179° |
| 2026-04-18 02:38 | 34.87262 | -80.66350 | 11985 ft | 283 kts | 179° |
| 2026-04-18 02:38 | 34.85322 | -80.66294 | 11986 ft | 283 kts | 179° |
| 2026-04-18 02:39 | 34.83353 | -80.66237 | 11987 ft | 283 kts | 179° |
| 2026-04-18 02:39 | 34.81382 | -80.66182 | 11987 ft | 283 kts | 179° |
| 2026-04-18 02:39 | 34.79411 | -80.66125 | 11988 ft | 283 kts | 179° |
| 2026-04-18 02:39 | 34.77440 | -80.66068 | 11988 ft | 283 kts | 179° |
| 2026-04-18 02:40 | 34.75469 | -80.66014 | 11988 ft | 283 kts | 179° |
| 2026-04-18 02:40 | 34.73498 | -80.65957 | 11988 ft | 283 kts | 179° |
| 2026-04-18 02:40 | 34.71588 | -80.65905 | 12532 ft | 262 kts | 179° |
| 2026-04-18 02:40 | 34.69847 | -80.65850 | 13271 ft | 240 kts | 179° |
| 2026-04-18 02:41 | 34.68242 | -80.65799 | 14004 ft | 222 kts | 179° |
| 2026-04-18 02:41 | 34.66758 | -80.65755 | 14669 ft | 205 kts | 180° |
| 2026-04-18 02:41 | 34.65389 | -80.65714 | 15342 ft | 188 kts | 180° |
| 2026-04-18 02:41 | 34.64096 | -80.65847 | 15713 ft | 189 kts | 199° |
| 2026-04-18 02:42 | 34.62849 | -80.66355 | 16087 ft | 190 kts | 201° |
| 2026-04-18 02:42 | 34.61578 | -80.66837 | 16452 ft | 192 kts | 200° |
| 2026-04-18 02:42 | 34.60292 | -80.67312 | 16829 ft | 194 kts | 200° |
| 2026-04-18 02:42 | 34.58998 | -80.67791 | 17201 ft | 195 kts | 201° |
| 2026-04-18 02:43 | 34.57694 | -80.68278 | 17567 ft | 197 kts | 201° |
| 2026-04-18 02:43 | 34.56380 | -80.68771 | 17934 ft | 198 kts | 201° |
| 2026-04-18 02:43 | 34.55071 | -80.69257 | 18295 ft | 200 kts | 201° |
| 2026-04-18 02:43 | 34.53737 | -80.69753 | 18613 ft | 201 kts | 201° |
| 2026-04-18 02:44 | 34.52391 | -80.70253 | 18926 ft | 203 kts | 202° |
| 2026-04-18 02:44 | 34.51039 | -80.70757 | 19243 ft | 204 kts | 202° |
| 2026-04-18 02:44 | 34.49677 | -80.71263 | 19553 ft | 205 kts | 202° |
| 2026-04-18 02:44 | 34.48305 | -80.71773 | 19857 ft | 207 kts | 203° |
| 2026-04-18 02:45 | 34.46927 | -80.72285 | 20168 ft | 208 kts | 203° |
| 2026-04-18 02:45 | 34.45538 | -80.72801 | 20476 ft | 210 kts | 204° |
| 2026-04-18 02:45 | 34.44137 | -80.73321 | 20773 ft | 211 kts | 204° |
| 2026-04-18 02:45 | 34.42731 | -80.73844 | 21075 ft | 212 kts | 204° |
| 2026-04-18 02:46 | 34.41313 | -80.74369 | 21384 ft | 214 kts | 204° |
| 2026-04-18 02:46 | 34.39886 | -80.74899 | 21679 ft | 215 kts | 205° |
| 2026-04-18 02:46 | 34.38451 | -80.75431 | 21961 ft | 216 kts | 205° |
| 2026-04-18 02:46 | 34.37495 | -80.75785 | 22162 ft | 217 kts | 205° |
| 2026-04-18 02:47 | 34.36049 | -80.76321 | 22466 ft | 218 kts | 206° |
| 2026-04-18 02:47 | 34.34592 | -80.76861 | 22758 ft | 220 kts | 206° |
| 2026-04-18 02:47 | 34.33125 | -80.77404 | 23047 ft | 221 kts | 206° |
| 2026-04-18 02:47 | 34.31652 | -80.77949 | 23337 ft | 222 kts | 206° |
| 2026-04-18 02:48 | 34.30170 | -80.78498 | 23606 ft | 224 kts | 206° |
| 2026-04-18 02:48 | 34.28679 | -80.79050 | 23846 ft | 224 kts | 206° |
| 2026-04-18 02:48 | 34.27182 | -80.79603 | 24082 ft | 225 kts | 207° |
| 2026-04-18 02:48 | 34.25678 | -80.80159 | 24318 ft | 226 kts | 207° |
| 2026-04-18 02:49 | 34.24169 | -80.80716 | 24556 ft | 227 kts | 207° |
| 2026-04-18 02:49 | 34.22656 | -80.81275 | 24785 ft | 228 kts | 207° |
| 2026-04-18 02:49 | 34.21136 | -80.81837 | 25017 ft | 229 kts | 207° |
| 2026-04-18 02:49 | 34.19610 | -80.82400 | 25255 ft | 230 kts | 208° |
| 2026-04-18 02:50 | 34.18075 | -80.82966 | 25479 ft | 231 kts | 208° |
| 2026-04-18 02:50 | 34.16538 | -80.83533 | 25710 ft | 232 kts | 208° |
| 2026-04-18 02:50 | 34.14921 | -80.83907 | 25940 ft | 240 kts | 198° |
| 2026-04-18 02:50 | 34.13264 | -80.84186 | 26149 ft | 240 kts | 199° |
| 2026-04-18 02:51 | 34.11628 | -80.84487 | 26353 ft | 242 kts | 199° |
| 2026-04-18 02:51 | 34.09958 | -80.84793 | 26582 ft | 243 kts | 199° |
| 2026-04-18 02:51 | 34.08284 | -80.85095 | 26795 ft | 244 kts | 199° |
| 2026-04-18 02:51 | 34.06603 | -80.85397 | 27014 ft | 245 kts | 199° |
| 2026-04-18 02:52 | 34.04913 | -80.85702 | 27209 ft | 246 kts | 199° |
| 2026-04-18 02:52 | 34.03218 | -80.86007 | 27425 ft | 247 kts | 200° |
| 2026-04-18 02:52 | 34.01518 | -80.86315 | 27642 ft | 248 kts | 200° |
| 2026-04-18 02:52 | 33.99810 | -80.86623 | 27856 ft | 249 kts | 200° |
| 2026-04-18 02:53 | 33.98097 | -80.86930 | 28071 ft | 249 kts | 200° |
| 2026-04-18 02:53 | 33.96378 | -80.87239 | 28286 ft | 250 kts | 200° |
| 2026-04-18 02:53 | 33.94651 | -80.87550 | 28498 ft | 251 kts | 200° |
| 2026-04-18 02:53 | 33.92913 | -80.87863 | 28661 ft | 254 kts | 200° |
| 2026-04-18 02:54 | 33.91143 | -80.88185 | 28770 ft | 260 kts | 200° |
| 2026-04-18 02:54 | 33.89340 | -80.88511 | 28883 ft | 265 kts | 200° |
| 2026-04-18 02:54 | 33.87504 | -80.88838 | 28983 ft | 269 kts | 199° |
| 2026-04-18 02:54 | 33.85640 | -80.89172 | 29097 ft | 273 kts | 199° |
| 2026-04-18 02:55 | 33.83783 | -80.89617 | 29205 ft | 273 kts | 203° |
| 2026-04-18 02:55 | 33.81899 | -80.90056 | 29317 ft | 278 kts | 201° |
| 2026-04-18 02:55 | 33.79994 | -80.90481 | 29523 ft | 277 kts | 202° |
| 2026-04-18 02:55 | 33.78101 | -80.90923 | 29644 ft | 279 kts | 202° |
| 2026-04-18 02:56 | 33.76195 | -80.91386 | 29785 ft | 280 kts | 203° |
| 2026-04-18 02:56 | 33.74276 | -80.91839 | 29949 ft | 282 kts | 202° |
| 2026-04-18 02:56 | 33.70389 | -80.92759 | 30017 ft | 293 kts | 202° |
| 2026-04-18 02:57 | 33.68368 | -80.93238 | 30025 ft | 299 kts | 202° |
| 2026-04-18 02:57 | 33.66313 | -80.93720 | 30026 ft | 304 kts | 202° |
| 2026-04-18 02:57 | 33.62105 | -80.94709 | 29998 ft | 311 kts | 201° |
| 2026-04-18 02:58 | 33.57818 | -80.95719 | 30019 ft | 317 kts | 201° |
| 2026-04-18 02:58 | 33.53460 | -80.96743 | 30044 ft | 321 kts | 201° |
| 2026-04-18 02:59 | 33.49052 | -80.97780 | 30043 ft | 325 kts | 201° |
| 2026-04-18 02:59 | 33.44600 | -80.98824 | 30045 ft | 327 kts | 201° |
| 2026-04-18 03:00 | 33.40113 | -80.99869 | 30040 ft | 329 kts | 201° |
| 2026-04-18 03:00 | 33.35618 | -81.00932 | 30032 ft | 330 kts | 201° |
| 2026-04-18 03:01 | 33.31106 | -81.01983 | 30028 ft | 331 kts | 201° |
| 2026-04-18 03:01 | 33.26615 | -81.03035 | 30026 ft | 331 kts | 201° |
| 2026-04-18 03:02 | 33.22087 | -81.04091 | 30024 ft | 331 kts | 201° |
| 2026-04-18 03:02 | 33.17560 | -81.05147 | 30023 ft | 332 kts | 201° |
| 2026-04-18 03:03 | 33.13026 | -81.06204 | 30021 ft | 332 kts | 201° |
| 2026-04-18 03:03 | 33.08495 | -81.07258 | 30020 ft | 332 kts | 201° |
| 2026-04-18 03:04 | 33.03961 | -81.08313 | 30023 ft | 332 kts | 200° |
| 2026-04-18 03:04 | 32.99428 | -81.09366 | 30023 ft | 332 kts | 200° |
| 2026-04-18 03:05 | 32.94893 | -81.10419 | 30023 ft | 332 kts | 201° |
| 2026-04-18 03:05 | 32.90388 | -81.11462 | 30023 ft | 332 kts | 200° |
| 2026-04-18 03:06 | 32.85853 | -81.12513 | 30022 ft | 332 kts | 200° |
| 2026-04-18 03:06 | 32.81313 | -81.13535 | 30017 ft | 331 kts | 201° |
| 2026-04-18 03:07 | 32.76785 | -81.14616 | 30016 ft | 332 kts | 200° |
| 2026-04-18 03:07 | 32.72241 | -81.15656 | 30015 ft | 332 kts | 200° |
| 2026-04-18 03:08 | 32.67701 | -81.16706 | 30018 ft | 332 kts | 200° |
| 2026-04-18 03:08 | 32.63158 | -81.17763 | 30017 ft | 332 kts | 201° |
| 2026-04-18 03:09 | 32.58641 | -81.18804 | 30018 ft | 333 kts | 200° |
| 2026-04-18 03:09 | 32.54087 | -81.19835 | 30014 ft | 332 kts | 200° |
| 2026-04-18 03:10 | 32.49543 | -81.20884 | 30017 ft | 333 kts | 200° |
| 2026-04-18 03:10 | 32.44850 | -81.21335 | 30021 ft | 342 kts | 190° |
| 2026-04-18 03:11 | 32.40107 | -81.21554 | 30024 ft | 341 kts | 191° |
| 2026-04-18 03:11 | 32.35368 | -81.21800 | 30024 ft | 341 kts | 191° |
| 2026-04-18 03:12 | 32.30622 | -81.22033 | 30036 ft | 341 kts | 191° |
| 2026-04-18 03:12 | 32.25879 | -81.22271 | 30043 ft | 341 kts | 191° |
| 2026-04-18 03:13 | 32.21137 | -81.22506 | 30055 ft | 341 kts | 191° |
| 2026-04-18 03:13 | 32.16418 | -81.22741 | 30051 ft | 341 kts | 191° |
| 2026-04-18 03:14 | 32.11672 | -81.22977 | 30046 ft | 341 kts | 191° |
| 2026-04-18 03:14 | 32.06926 | -81.23213 | 30050 ft | 341 kts | 191° |
| 2026-04-18 03:15 | 32.02180 | -81.23448 | 30010 ft | 341 kts | 191° |
| 2026-04-18 03:15 | 31.97436 | -81.23685 | 30009 ft | 341 kts | 192° |
| 2026-04-18 03:16 | 31.95168 | -81.24202 | 30009 ft | 324 kts | 210° |
| 2026-04-18 03:16 | 31.93048 | -81.25102 | 30012 ft | 324 kts | 210° |
| 2026-04-18 03:16 | 31.88779 | -81.26859 | 30017 ft | 325 kts | 210° |
| 2026-04-18 03:17 | 31.84509 | -81.28627 | 30016 ft | 325 kts | 210° |
| 2026-04-18 03:17 | 31.80278 | -81.30372 | 30031 ft | 324 kts | 209° |
| 2026-04-18 03:18 | 31.76020 | -81.32128 | 30034 ft | 324 kts | 210° |
| 2026-04-18 03:18 | 31.71766 | -81.33882 | 30032 ft | 324 kts | 210° |
| 2026-04-18 03:19 | 31.67506 | -81.35635 | 30031 ft | 324 kts | 210° |
| 2026-04-18 03:19 | 31.63249 | -81.37386 | 30031 ft | 324 kts | 210° |
| 2026-04-18 03:20 | 31.58992 | -81.39135 | 30036 ft | 324 kts | 210° |
| 2026-04-18 03:20 | 31.54730 | -81.40884 | 30041 ft | 324 kts | 210° |
| 2026-04-18 03:21 | 31.50470 | -81.42631 | 30042 ft | 324 kts | 210° |
| 2026-04-18 03:21 | 31.46051 | -81.43821 | 30051 ft | 343 kts | 187° |
| 2026-04-18 03:22 | 31.41271 | -81.43733 | 30059 ft | 343 kts | 188° |
| 2026-04-18 03:22 | 31.36497 | -81.43689 | 30064 ft | 343 kts | 188° |
| 2026-04-18 03:23 | 31.31712 | -81.43629 | 30066 ft | 343 kts | 188° |
| 2026-04-18 03:23 | 31.26930 | -81.43574 | 30065 ft | 344 kts | 188° |
| 2026-04-18 03:24 | 31.24529 | -81.43412 | 30069 ft | 352 kts | 177° |
| 2026-04-18 03:24 | 31.22124 | -81.42825 | 30057 ft | 352 kts | 174° |
| 2026-04-18 03:24 | 31.17324 | -81.41657 | 30051 ft | 352 kts | 175° |
| 2026-04-18 03:25 | 31.12528 | -81.40522 | 30050 ft | 352 kts | 175° |
| 2026-04-18 03:25 | 31.07761 | -81.39380 | 30051 ft | 352 kts | 175° |
| 2026-04-18 03:26 | 31.02966 | -81.38239 | 30050 ft | 352 kts | 175° |
| 2026-04-18 03:26 | 30.98170 | -81.37096 | 30050 ft | 351 kts | 175° |
| 2026-04-18 03:27 | 30.93377 | -81.35957 | 30045 ft | 351 kts | 175° |
| 2026-04-18 03:27 | 30.88592 | -81.34819 | 30060 ft | 351 kts | 175° |
| 2026-04-18 03:28 | 30.83803 | -81.33682 | 30059 ft | 351 kts | 175° |
| 2026-04-18 03:28 | 30.79019 | -81.32548 | 30065 ft | 351 kts | 175° |
| 2026-04-18 03:29 | 30.74267 | -81.31422 | 30066 ft | 351 kts | 175° |
| 2026-04-18 03:29 | 30.69484 | -81.30291 | 30067 ft | 351 kts | 175° |
| 2026-04-18 03:30 | 30.67086 | -81.29724 | 29958 ft | 354 kts | 175° |
| 2026-04-18 03:30 | 30.64636 | -81.29149 | 29554 ft | 365 kts | 174° |
| 2026-04-18 03:30 | 30.62104 | -81.28554 | 29028 ft | 374 kts | 174° |
| 2026-04-18 03:30 | 30.59545 | -81.28053 | 28504 ft | 371 kts | 182° |
| 2026-04-18 03:31 | 30.56975 | -81.27925 | 27999 ft | 369 kts | 184° |
| 2026-04-18 03:31 | 30.54404 | -81.27823 | 27498 ft | 370 kts | 184° |
| 2026-04-18 03:31 | 30.51828 | -81.27690 | 26999 ft | 370 kts | 183° |
| 2026-04-18 03:31 | 30.49252 | -81.27544 | 26516 ft | 370 kts | 183° |
| 2026-04-18 03:32 | 30.46671 | -81.27413 | 26040 ft | 371 kts | 183° |
| 2026-04-18 03:32 | 30.44093 | -81.27287 | 25580 ft | 371 kts | 182° |
| 2026-04-18 03:32 | 30.41550 | -81.27157 | 25149 ft | 371 kts | 182° |
| 2026-04-18 03:32 | 30.38970 | -81.27022 | 24718 ft | 371 kts | 182° |
| 2026-04-18 03:33 | 30.36388 | -81.26890 | 24290 ft | 371 kts | 182° |
| 2026-04-18 03:33 | 30.33812 | -81.26758 | 24077 ft | 368 kts | 182° |
| 2026-04-18 03:33 | 30.31284 | -81.26629 | 24077 ft | 360 kts | 182° |
| 2026-04-18 03:33 | 30.28805 | -81.26504 | 24074 ft | 354 kts | 182° |
| 2026-04-18 03:34 | 30.26357 | -81.26375 | 24073 ft | 350 kts | 182° |
| 2026-04-18 03:34 | 30.23934 | -81.26224 | 23935 ft | 351 kts | 181° |
| 2026-04-18 03:34 | 30.22297 | -81.26119 | 23577 ft | 361 kts | 181° |
| 2026-04-18 03:34 | 30.19770 | -81.25969 | 22986 ft | 364 kts | 181° |
| 2026-04-18 03:35 | 30.17236 | -81.25820 | 22399 ft | 364 kts | 181° |
| 2026-04-18 03:35 | 30.14708 | -81.25655 | 21825 ft | 362 kts | 181° |
| 2026-04-18 03:35 | 30.12199 | -81.25496 | 21265 ft | 360 kts | 181° |
| 2026-04-18 03:35 | 30.09709 | -81.25347 | 20703 ft | 356 kts | 181° |
| 2026-04-18 03:36 | 30.07241 | -81.25195 | 20159 ft | 353 kts | 180° |
| 2026-04-18 03:36 | 30.04806 | -81.25044 | 19627 ft | 349 kts | 180° |
| 2026-04-18 03:36 | 30.02394 | -81.24897 | 19102 ft | 345 kts | 180° |
| 2026-04-18 03:36 | 30.00011 | -81.24751 | 18582 ft | 341 kts | 180° |
| 2026-04-18 03:37 | 29.97652 | -81.24606 | 18029 ft | 337 kts | 180° |
| 2026-04-18 03:37 | 29.95326 | -81.24463 | 17446 ft | 333 kts | 180° |
| 2026-04-18 03:37 | 29.93026 | -81.24323 | 16871 ft | 329 kts | 180° |
| 2026-04-18 03:37 | 29.90757 | -81.24247 | 16308 ft | 324 kts | 183° |
| 2026-04-18 03:38 | 29.88510 | -81.24173 | 15754 ft | 321 kts | 180° |
| 2026-04-18 03:38 | 29.86290 | -81.24047 | 15211 ft | 318 kts | 180° |
| 2026-04-18 03:38 | 29.84095 | -81.23963 | 14679 ft | 314 kts | 182° |
| 2026-04-18 03:38 | 29.81931 | -81.23900 | 14211 ft | 309 kts | 182° |
| 2026-04-18 03:39 | 29.79798 | -81.23820 | 13738 ft | 305 kts | 181° |
| 2026-04-18 03:39 | 29.77692 | -81.23740 | 13225 ft | 301 kts | 181° |
| 2026-04-18 03:39 | 29.75590 | -81.23656 | 12704 ft | 303 kts | 181° |
| 2026-04-18 03:39 | 29.73471 | -81.23578 | 12168 ft | 304 kts | 181° |
| 2026-04-18 03:40 | 29.71351 | -81.23510 | 11633 ft | 303 kts | 181° |
| 2026-04-18 03:40 | 29.69281 | -81.23435 | 11167 ft | 300 kts | 180° |
| 2026-04-18 03:40 | 29.67221 | -81.23351 | 10812 ft | 293 kts | 179° |
| 2026-04-18 03:40 | 29.65258 | -81.22788 | 10453 ft | 292 kts | 158° |
| 2026-04-18 03:41 | 29.63390 | -81.21837 | 10105 ft | 288 kts | 159° |
| 2026-04-18 03:41 | 29.61530 | -81.21009 | 9730 ft | 285 kts | 161° |
| 2026-04-18 03:41 | 29.59685 | -81.20185 | 9351 ft | 284 kts | 159° |
| 2026-04-18 03:41 | 29.57891 | -81.19330 | 8976 ft | 282 kts | 159° |
| 2026-04-18 03:42 | 29.56080 | -81.18468 | 8559 ft | 282 kts | 158° |
| 2026-04-18 03:42 | 29.54260 | -81.17627 | 8121 ft | 281 kts | 158° |
| 2026-04-18 03:42 | 29.52445 | -81.16787 | 7705 ft | 281 kts | 158° |
| 2026-04-18 03:42 | 29.50629 | -81.15965 | 7275 ft | 279 kts | 158° |
| 2026-04-18 03:43 | 29.48827 | -81.15149 | 6853 ft | 278 kts | 158° |
| 2026-04-18 03:43 | 29.47050 | -81.14363 | 6430 ft | 268 kts | 158° |
| 2026-04-18 03:43 | 29.45337 | -81.13619 | 6022 ft | 257 kts | 159° |
| 2026-04-18 03:43 | 29.43738 | -81.12908 | 5998 ft | 238 kts | 158° |
| 2026-04-18 03:44 | 29.42237 | -81.12226 | 5991 ft | 228 kts | 157° |
| 2026-04-18 03:44 | 29.40760 | -81.11554 | 5990 ft | 229 kts | 157° |
| 2026-04-18 03:44 | 29.39277 | -81.10883 | 5989 ft | 229 kts | 157° |
| 2026-04-18 03:44 | 29.37789 | -81.10213 | 5981 ft | 230 kts | 157° |
| 2026-04-18 03:45 | 29.36265 | -81.09711 | 5984 ft | 229 kts | 178° |
| 2026-04-18 03:45 | 29.34725 | -81.10171 | 5703 ft | 238 kts | 213° |
| 2026-04-18 03:45 | 29.33587 | -81.11566 | 5265 ft | 243 kts | 239° |
| 2026-04-18 03:45 | 29.32731 | -81.13245 | 4841 ft | 244 kts | 242° |
| 2026-04-18 03:46 | 29.31897 | -81.14942 | 4402 ft | 243 kts | 243° |
| 2026-04-18 03:46 | 29.31069 | -81.16629 | 3965 ft | 242 kts | 242° |
| 2026-04-18 03:46 | 29.30247 | -81.18274 | 3528 ft | 241 kts | 237° |
| 2026-04-18 03:46 | 29.28947 | -81.19459 | 3083 ft | 244 kts | 203° |
| 2026-04-18 03:47 | 29.27425 | -81.19550 | 2984 ft | 192 kts | 166° |
| 2026-04-18 03:47 | 29.26328 | -81.19048 | 2967 ft | 153 kts | 157° |
| 2026-04-18 03:47 | 29.25342 | -81.18557 | 2529 ft | 158 kts | 159° |
| 2026-04-18 03:47 | 29.24347 | -81.18104 | 2266 ft | 147 kts | 157° |
| 2026-04-18 03:48 | 29.23429 | -81.17715 | 2098 ft | 135 kts | 158° |
| 2026-04-18 03:48 | 29.22565 | -81.17357 | 1937 ft | 129 kts | 157° |
| 2026-04-18 03:48 | 29.21739 | -81.17003 | 1792 ft | 124 kts | 156° |
| 2026-04-18 03:48 | 29.20943 | -81.16616 | 1596 ft | 124 kts | 153° |
| 2026-04-18 03:49 | 29.20181 | -81.16220 | 1511 ft | 117 kts | 153° |
| 2026-04-18 03:49 | 29.19432 | -81.15810 | 1417 ft | 128 kts | 150° |
| 2026-04-18 03:49 | 29.18625 | -81.15346 | 1279 ft | 128 kts | 150° |
| 2026-04-18 03:49 | 29.17840 | -81.14885 | 1180 ft | 125 kts | 150° |
| 2026-04-18 03:50 | 29.17064 | -81.14382 | 1102 ft | 129 kts | 148° |
| 2026-04-18 03:50 | 29.16401 | -81.13762 | 1007 ft | 120 kts | 128° |
| 2026-04-18 03:50 | 29.16095 | -81.12885 | 853 ft | 124 kts | 94° |
| 2026-04-18 03:50 | 29.16146 | -81.11940 | 795 ft | 104 kts | 86° |
| 2026-04-18 03:51 | 29.16261 | -81.11155 | 673 ft | 97 kts | 83° |
| 2026-04-18 03:51 | 29.16386 | -81.10404 | 497 ft | 97 kts | 80° |
| 2026-04-18 03:51 | 29.16535 | -81.09658 | 400 ft | 99 kts | 73° |
| 2026-04-18 03:51 | 29.16813 | -81.08919 | 284 ft | 102 kts | 66° |
| 2026-04-18 03:52 | 29.17106 | -81.08177 | 178 ft | 103 kts | 68° |
| 2026-04-18 03:52 | 29.17386 | -81.07461 | 64 ft | 95 kts | 65° |
| 2026-04-18 03:52 | 29.17632 | -81.06846 | 34 ft | 67 kts | 66° |
| 2026-04-18 03:52 | 29.17767 | -81.06512 | 33 ft | 31 kts | 67° |
| 2026-04-18 03:53 | 29.17852 | -81.06456 | 34 ft | 10 kts | 335° |
| 2026-04-18 03:53 | 29.17904 | -81.06482 | 35 ft | 10 kts | 352° |
| 2026-04-18 03:53 | 29.17954 | -81.06430 | 35 ft | 12 kts | 66° |
| 2026-04-18 03:53 | 29.18000 | -81.06315 | 38 ft | 22 kts | 65° |
| 2026-04-18 03:54 | 29.18074 | -81.06132 | 37 ft | 29 kts | 65° |
| 2026-04-18 03:54 | 29.18135 | -81.05983 | 38 ft | 13 kts | 64° |
| 2026-04-18 03:54 | 29.18176 | -81.05881 | 37 ft | 19 kts | 65° |
| 2026-04-18 03:54 | 29.18238 | -81.05730 | 36 ft | 19 kts | 66° |
| 2026-04-18 03:55 | 29.18289 | -81.05598 | 37 ft | 17 kts | 66° |
| 2026-04-18 03:55 | 29.18341 | -81.05466 | 37 ft | 15 kts | 54° |
| 2026-04-18 03:55 | 29.18425 | -81.05457 | 37 ft | 13 kts | 335° |
| 2026-04-18 03:55 | 29.18533 | -81.05510 | 36 ft | 18 kts | 338° |
| 2026-04-18 03:56 | 29.18618 | -81.05560 | 36 ft | 9 kts | 301° |
| 2026-04-18 03:56 | 29.18642 | -81.05625 | 36 ft | 10 kts | 290° |
| 2026-04-18 03:56 | 29.18652 | -81.05637 | 36 ft | 0 kts | 358° |